Time;durP1;ratioP1;P1;durP2;ratioP2;P2;SDS_P1;SDS_P2;PMS_P1;PMS_P2;Temp;Humidity;BMP_temperature;BMP_pressure;BME280_temperature;BME280_humidity;BME280_pressure;Samples;Min_cycle;Max_cycle;Signal;HPM_P1;HPM_P2
2022/07/01 00:00:20;;;;;;;10.60;4.40;;;;;;;;;;10443934;28;20118;-79
2022/07/01 00:05:20;;;;;;;8.38;3.90;;;;;;;;;;10450532;28;20040;-76
2022/07/01 00:10:20;;;;;;;6.03;3.80;;;;;;;;;;10443527;28;20025;-78
2022/07/01 00:15:22;;;;;;;7.13;3.63;;;;;;;;;;10442585;28;20287;-77
2022/07/01 00:20:22;;;;;;;6.82;3.55;;;;;;;;;;10442903;28;20808;-77
2022/07/01 00:25:23;;;;;;;5.82;4.10;;;;;;;;;;10442407;28;20033;-73
2022/07/01 00:30:23;;;;;;;5.22;3.38;;;;;;;;;;10443139;28;20025;-76
2022/07/01 00:35:23;;;;;;;4.83;3.90;;;;;;;;;;10443617;28;20155;-78
2022/07/01 00:40:24;;;;;;;7.23;3.80;;;;;;;;;;10433856;28;20306;-78
2022/07/01 00:45:25;;;;;;;4.63;3.72;;;;;;;;;;10441788;28;20029;-75
2022/07/01 00:50:25;;;;;;;9.23;4.50;;;;;;;;;;10442129;28;20025;-70
2022/07/01 00:55:25;;;;;;;8.27;4.10;;;;;;;;;;10425150;28;20472;-76
2022/07/01 01:00:26;;;;;;;4.38;3.80;;;;;;;;;;10441235;28;20523;-72
2022/07/01 01:05:26;;;;;;;4.90;3.60;;;;;;;;;;10440597;28;20024;-76
2022/07/01 01:10:27;;;;;;;5.60;3.57;;;;;;;;;;10430293;28;20046;-76
2022/07/01 01:15:29;;;;;;;10.93;4.40;;;;;;;;;;10425432;28;20627;-77
2022/07/01 01:20:32;;;;;;;10.38;3.95;;;;;;;;;;10430031;28;20102;-76
2022/07/01 01:25:33;;;;;;;5.82;4.13;;;;;;;;;;10440996;28;20025;-77
2022/07/01 01:30:35;;;;;;;6.15;3.72;;;;;;;;;;10438086;28;20025;-76
2022/07/01 01:35:35;;;;;;;9.70;4.40;;;;;;;;;;10431956;28;20104;-80
2022/07/01 01:40:36;;;;;;;4.82;4.30;;;;;;;;;;10435003;28;20048;-78
2022/07/01 01:45:36;;;;;;;5.85;4.15;;;;;;;;;;10435669;28;20016;-79
2022/07/01 01:50:36;;;;;;;6.90;4.03;;;;;;;;;;10434682;28;20017;-80
2022/07/01 01:55:36;;;;;;;10.13;5.13;;;;;;;;;;10435620;28;20072;-74
2022/07/01 02:00:37;;;;;;;7.82;4.13;;;;;;;;;;10439704;28;20042;-78
2022/07/01 02:05:37;;;;;;;11.38;4.38;;;;;;;;;;10433560;28;20029;-75
2022/07/01 02:10:37;;;;;;;7.33;4.27;;;;;;;;;;10430992;28;20028;-80
2022/07/01 02:15:39;;;;;;;7.00;4.50;;;;;;;;;;10434909;28;20028;-77
2022/07/01 02:20:39;;;;;;;16.35;4.88;;;;;;;;;;10442645;28;20514;-77
2022/07/01 02:25:40;;;;;;;6.30;4.50;;;;;;;;;;10434620;28;20108;-75
2022/07/01 02:30:41;;;;;;;9.40;4.57;;;;;;;;;;10459704;23;20032;-75
2022/07/01 02:35:41;;;;;;;9.68;4.53;;;;;;;;;;10436418;28;20298;-79
2022/07/01 02:40:41;;;;;;;10.27;7.43;;;;;;;;;;10443449;28;20021;-80
2022/07/01 02:45:42;;;;;;;6.47;4.65;;;;;;;;;;10446362;28;20513;-75
2022/07/01 02:50:42;;;;;;;11.55;4.32;;;;;;;;;;10470991;28;20033;-75
2022/07/01 02:55:42;;;;;;;9.65;5.55;;;;;;;;;;10466729;28;20021;-75
2022/07/01 03:00:43;;;;;;;10.00;5.50;;;;;;;;;;10452417;28;20136;-78
2022/07/01 03:05:43;;;;;;;7.33;5.80;;;;;;;;;;10487528;28;20056;-79
2022/07/01 03:10:43;;;;;;;11.25;6.07;;;;;;;;;;10487501;28;20712;-78
2022/07/01 03:15:43;;;;;;;11.18;5.85;;;;;;;;;;10485171;28;20021;-73
2022/07/01 03:20:44;;;;;;;12.10;6.28;;;;;;;;;;10445293;28;20402;-76
2022/07/01 03:25:44;;;;;;;10.25;6.00;;;;;;;;;;10444999;28;20136;-77
2022/07/01 03:30:44;;;;;;;14.43;6.53;;;;;;;;;;10444318;28;20043;-78
2022/07/01 03:35:47;;;;;;;15.57;6.60;;;;;;;;;;10443273;28;20510;-75
2022/07/01 03:40:48;;;;;;;10.55;6.47;;;;;;;;;;10445011;28;20532;-76
2022/07/01 03:45:48;;;;;;;10.23;6.40;;;;;;;;;;10441869;28;20025;-77
2022/07/01 03:50:48;;;;;;;12.70;6.75;;;;;;;;;;10442723;28;20057;-76
2022/07/01 03:55:48;;;;;;;17.90;6.95;;;;;;;;;;10441054;28;20020;-75
2022/07/01 04:00:49;;;;;;;12.48;6.88;;;;;;;;;;10459585;28;20021;-75
2022/07/01 04:05:49;;;;;;;15.63;8.30;;;;;;;;;;10442534;28;20025;-69
2022/07/01 04:10:50;;;;;;;15.07;7.35;;;;;;;;;;10437361;28;20032;-70
2022/07/01 04:15:50;;;;;;;16.45;7.22;;;;;;;;;;10437483;28;20525;-76
2022/07/01 04:26:09;;;;;;;19.20;6.35;;;;;;;;;;10434066;28;20066;-71
2022/07/01 04:31:09;;;;;;;16.95;6.68;;;;;;;;;;10433500;28;20503;-77
2022/07/01 04:36:10;;;;;;;13.98;6.40;;;;;;;;;;10448017;28;20060;-72
2022/07/01 04:46:29;;;;;;;10.95;5.80;;;;;;;;;;10445701;28;20032;-76
2022/07/01 04:51:30;;;;;;;8.85;5.13;;;;;;;;;;10442606;28;20028;-76
2022/07/01 04:56:31;;;;;;;10.68;5.43;;;;;;;;;;10436345;28;20551;-71
2022/07/01 05:01:31;;;;;;;9.93;5.50;;;;;;;;;;10436624;28;20025;-76
2022/07/01 05:06:32;;;;;;;11.35;5.95;;;;;;;;;;10436872;28;20036;-73
2022/07/01 05:11:33;;;;;;;9.10;5.25;;;;;;;;;;10438261;28;20021;-73
2022/07/01 05:16:33;;;;;;;10.30;4.65;;;;;;;;;;10436145;28;20021;-75
2022/07/01 05:26:52;;;;;;;7.78;4.35;;;;;;;;;;10437712;28;20024;-77
2022/07/01 05:31:53;;;;;;;11.45;4.28;;;;;;;;;;10435853;28;20049;-77
2022/07/01 05:36:53;;;;;;;6.87;3.83;;;;;;;;;;10435685;28;20102;-77
2022/07/01 05:41:53;;;;;;;12.05;4.40;;;;;;;;;;10435844;28;20702;-76
2022/07/01 05:46:53;;;;;;;13.02;5.60;;;;;;;;;;10437924;28;20025;-75
2022/07/01 05:51:53;;;;;;;12.70;5.57;;;;;;;;;;10446776;28;20506;-73
2022/07/01 05:56:54;;;;;;;11.07;4.90;;;;;;;;;;10437164;28;20025;-75
2022/07/01 06:01:54;;;;;;;17.60;4.68;;;;;;;;;;10436359;28;20027;-73
2022/07/01 06:06:54;;;;;;;12.85;3.53;;;;;;;;;;10435388;28;20410;-73
2022/07/01 06:11:54;;;;;;;12.90;4.35;;;;;;;;;;10435393;28;20091;-75
2022/07/01 06:16:55;;;;;;;12.82;4.47;;;;;;;;;;10435511;28;20033;-75
2022/07/01 06:21:56;;;;;;;9.73;4.32;;;;;;;;;;10436320;28;20116;-78
2022/07/01 06:26:56;;;;;;;12.73;3.55;;;;;;;;;;10434975;28;20025;-77
2022/07/01 06:31:56;;;;;;;4.73;3.57;;;;;;;;;;10434311;28;20114;-73
2022/07/01 06:37:00;;;;;;;9.02;3.15;;;;;;;;;;10435147;28;20029;-78
2022/07/01 06:42:00;;;;;;;5.18;3.08;;;;;;;;;;10434195;28;20021;-75
2022/07/01 06:47:00;;;;;;;5.88;3.03;;;;;;;;;;10437098;28;20529;-74
2022/07/01 06:52:00;;;;;;;11.90;3.42;;;;;;;;;;10445042;28;20117;-72
2022/07/01 06:57:01;;;;;;;7.50;2.80;;;;;;;;;;10433572;28;20032;-72
2022/07/01 07:02:01;;;;;;;14.88;3.10;;;;;;;;;;10433745;28;20017;-75
2022/07/01 07:07:02;;;;;;;9.65;2.90;;;;;;;;;;10434858;28;20024;-72
2022/07/01 07:12:02;;;;;;;8.48;3.20;;;;;;;;;;10432605;28;20427;-72
2022/07/01 07:17:02;;;;;;;4.83;2.63;;;;;;;;;;10449183;28;20029;-70
2022/07/01 07:22:03;;;;;;;6.20;3.00;;;;;;;;;;10443559;28;20013;-76
2022/07/01 07:27:03;;;;;;;6.03;3.30;;;;;;;;;;10438394;28;20060;-76
2022/07/01 07:32:03;;;;;;;9.53;3.57;;;;;;;;;;10437035;28;20132;-78
2022/07/01 07:37:04;;;;;;;11.07;4.47;;;;;;;;;;10430947;28;20396;-76
2022/07/01 07:42:05;;;;;;;9.40;3.60;;;;;;;;;;10440748;28;20020;-79
2022/07/01 07:47:05;;;;;;;18.77;5.63;;;;;;;;;;10437383;28;20033;-75
2022/07/01 07:52:06;;;;;;;8.43;4.13;;;;;;;;;;10437180;28;20491;-77
2022/07/01 07:57:07;;;;;;;13.47;4.27;;;;;;;;;;10438247;28;20487;-77
2022/07/01 08:02:08;;;;;;;9.82;3.55;;;;;;;;;;10437432;28;20021;-74
2022/07/01 08:07:08;;;;;;;18.02;4.60;;;;;;;;;;10436953;28;20123;-77
2022/07/01 08:12:08;;;;;;;11.52;3.92;;;;;;;;;;10433378;28;20127;-76
2022/07/01 08:17:08;;;;;;;16.75;4.78;;;;;;;;;;10430823;28;20033;-76
2022/07/01 08:22:09;;;;;;;6.97;3.57;;;;;;;;;;10421244;28;20031;-78
2022/07/01 08:27:09;;;;;;;9.73;3.45;;;;;;;;;;10435204;28;20117;-77
2022/07/01 08:32:09;;;;;;;16.05;4.15;;;;;;;;;;10432520;28;20628;-78
2022/07/01 08:37:10;;;;;;;10.03;3.93;;;;;;;;;;10436548;28;20525;-76
2022/07/01 08:42:10;;;;;;;9.35;3.28;;;;;;;;;;10433585;28;20021;-79
2022/07/01 08:47:11;;;;;;;4.30;3.22;;;;;;;;;;10449607;28;20489;-78
2022/07/01 08:52:12;;;;;;;6.45;3.30;;;;;;;;;;10442494;28;20021;-77
2022/07/01 08:57:13;;;;;;;8.88;4.30;;;;;;;;;;10422554;28;20021;-79
2022/07/01 09:02:14;;;;;;;7.03;3.15;;;;;;;;;;10434669;28;20041;-78
2022/07/01 09:07:14;;;;;;;5.07;2.57;;;;;;;;;;10416702;28;20020;-76
2022/07/01 09:12:15;;;;;;;8.90;2.90;;;;;;;;;;10435140;28;20033;-73
2022/07/01 09:17:18;;;;;;;4.63;2.40;;;;;;;;;;10434744;28;20443;-79
2022/07/01 09:22:18;;;;;;;5.45;2.10;;;;;;;;;;10443329;28;20106;-73
2022/07/01 09:27:18;;;;;;;5.03;2.70;;;;;;;;;;10432826;28;20396;-78
2022/07/01 09:32:20;;;;;;;4.83;2.50;;;;;;;;;;10423275;28;20447;-76
2022/07/01 09:37:21;;;;;;;6.72;2.80;;;;;;;;;;10419810;28;20111;-77
2022/07/01 09:42:22;;;;;;;5.85;2.65;;;;;;;;;;10437339;28;20039;-80
2022/07/01 09:47:23;;;;;;;5.72;3.30;;;;;;;;;;10432681;28;20029;-78
2022/07/01 09:52:24;;;;;;;9.23;3.00;;;;;;;;;;10427343;28;20028;-77
2022/07/01 09:57:24;;;;;;;5.45;3.05;;;;;;;;;;10424505;28;20064;-80
2022/07/01 10:02:28;;;;;;;4.67;2.47;;;;;;;;;;10431524;28;20088;-76
2022/07/01 10:07:28;;;;;;;7.07;2.83;;;;;;;;;;10421961;28;21069;-73
2022/07/01 10:12:29;;;;;;;6.20;2.70;;;;;;;;;;10419625;28;20415;-78
2022/07/01 10:17:30;;;;;;;2.45;1.75;;;;;;;;;;10421722;28;20028;-78
2022/07/01 10:22:30;;;;;;;11.52;2.00;;;;;;;;;;10412890;28;20028;-77
2022/07/01 10:27:31;;;;;;;6.07;1.77;;;;;;;;;;10405127;28;20466;-76
2022/07/01 10:32:31;;;;;;;3.03;1.60;;;;;;;;;;10419057;28;20053;-77
2022/07/01 10:37:31;;;;;;;3.80;1.80;;;;;;;;;;10420533;28;20045;-73
2022/07/01 10:42:33;;;;;;;6.13;1.50;;;;;;;;;;10415794;28;20025;-72
2022/07/01 10:47:33;;;;;;;1.88;1.40;;;;;;;;;;10418840;28;20048;-75
2022/07/01 10:52:33;;;;;;;3.42;2.10;;;;;;;;;;10420709;28;20586;-81
2022/07/01 10:57:34;;;;;;;3.70;1.85;;;;;;;;;;10421978;28;20057;-75
2022/07/01 11:02:38;;;;;;;5.72;2.10;;;;;;;;;;10426135;28;20029;-77
2022/07/01 11:07:39;;;;;;;5.70;1.92;;;;;;;;;;10431487;28;20130;-76
2022/07/01 11:12:39;;;;;;;5.60;3.13;;;;;;;;;;10449405;23;20053;-71
2022/07/01 11:17:44;;;;;;;7.95;2.75;;;;;;;;;;10406513;28;20092;-75
2022/07/01 11:22:45;;;;;;;3.90;2.60;;;;;;;;;;10420946;28;20220;-77
2022/07/01 11:27:46;;;;;;;8.18;3.03;;;;;;;;;;10421221;28;20393;-81
2022/07/01 11:32:48;;;;;;;7.90;3.25;;;;;;;;;;10424775;28;20656;-74
2022/07/01 11:43:20;;;;;;;5.55;2.75;;;;;;;;;;10427522;28;20454;-76
2022/07/01 11:48:39;;;;;;;7.50;2.40;;;;;;;;;;10428711;28;20029;-77
2022/07/01 11:53:41;;;;;;;4.18;2.88;;;;;;;;;;10426644;28;20077;-77
2022/07/01 11:58:42;;;;;;;4.63;2.97;;;;;;;;;;10420559;28;20504;-76
2022/07/01 12:03:42;;;;;;;3.60;2.70;;;;;;;;;;10421997;28;20063;-77
2022/07/01 12:08:44;;;;;;;4.22;3.10;;;;;;;;;;10428672;28;20029;-78
2022/07/01 12:13:45;;;;;;;4.30;2.95;;;;;;;;;;10429237;28;20088;-76
2022/07/01 12:18:52;;;;;;;4.78;2.85;;;;;;;;;;10429905;28;20429;-76
2022/07/01 12:24:09;;;;;;;8.18;3.00;;;;;;;;;;10429172;28;20477;-76
2022/07/01 12:29:09;;;;;;;3.28;2.58;;;;;;;;;;10425193;28;20040;-76
2022/07/01 12:34:10;;;;;;;5.53;2.65;;;;;;;;;;10429073;28;20017;-78
2022/07/01 12:39:10;;;;;;;3.37;2.27;;;;;;;;;;10432697;28;20098;-76
2022/07/01 12:44:23;;;;;;;5.50;2.33;;;;;;;;;;10431344;28;20032;-76
2022/07/01 12:49:24;;;;;;;9.85;3.70;;;;;;;;;;10432676;28;20036;-76
2022/07/01 12:54:36;;;;;;;8.32;4.38;;;;;;;;;;10430574;28;20475;-76
2022/07/01 12:59:36;;;;;;;8.02;3.95;;;;;;;;;;10419858;28;20064;-76
2022/07/01 13:04:36;;;;;;;7.70;3.90;;;;;;;;;;10424832;28;20027;-76
2022/07/01 13:09:37;;;;;;;7.57;3.53;;;;;;;;;;10429947;28;20032;-79
2022/07/01 13:14:37;;;;;;;8.95;3.72;;;;;;;;;;10421220;28;20087;-76
2022/07/01 13:19:37;;;;;;;5.07;3.45;;;;;;;;;;10427908;28;20020;-77
2022/07/01 13:24:38;;;;;;;5.43;3.07;;;;;;;;;;10428492;28;20025;-73
2022/07/01 13:29:38;;;;;;;5.68;3.72;;;;;;;;;;10418960;28;20053;-76
2022/07/01 13:34:38;;;;;;;4.72;3.97;;;;;;;;;;10408328;28;20033;-78
2022/07/01 13:39:38;;;;;;;8.52;4.50;;;;;;;;;;10416999;28;20498;-77
2022/07/01 13:44:39;;;;;;;8.40;3.70;;;;;;;;;;10416010;28;20029;-78
2022/07/01 13:49:42;;;;;;;4.70;3.87;;;;;;;;;;10413934;28;20025;-77
2022/07/01 13:54:42;;;;;;;6.18;4.25;;;;;;;;;;10412678;28;20028;-77
2022/07/01 13:59:42;;;;;;;5.93;4.10;;;;;;;;;;10412482;28;20020;-76
2022/07/01 14:04:42;;;;;;;12.43;4.13;;;;;;;;;;10421077;28;20033;-75
2022/07/01 14:09:43;;;;;;;5.13;4.20;;;;;;;;;;10440499;23;20047;-72
2022/07/01 14:14:44;;;;;;;4.07;3.67;;;;;;;;;;10420064;28;20127;-77
2022/07/01 14:19:44;;;;;;;4.53;4.10;;;;;;;;;;10400290;28;20029;-77
2022/07/01 14:24:44;;;;;;;4.97;4.03;;;;;;;;;;10424363;28;20090;-76
2022/07/01 14:29:45;;;;;;;9.63;6.68;;;;;;;;;;10405666;28;20874;-75
2022/07/01 14:34:45;;;;;;;5.43;4.05;;;;;;;;;;10406425;28;20098;-76
2022/07/01 14:39:45;;;;;;;9.52;4.07;;;;;;;;;;10414519;28;20070;-77
2022/07/01 14:44:45;;;;;;;4.60;4.07;;;;;;;;;;10434868;28;20401;-80
2022/07/01 14:49:46;;;;;;;4.80;3.80;;;;;;;;;;10411584;28;20667;-77
2022/07/01 14:54:46;;;;;;;6.93;4.80;;;;;;;;;;10421073;28;20025;-76
2022/07/01 14:59:47;;;;;;;6.13;4.43;;;;;;;;;;10423638;28;20016;-76
2022/07/01 15:04:47;;;;;;;15.00;4.88;;;;;;;;;;10429093;28;20171;-76
2022/07/01 15:09:47;;;;;;;5.80;4.45;;;;;;;;;;10430496;28;20053;-76
2022/07/01 15:14:48;;;;;;;5.57;4.25;;;;;;;;;;10433125;28;20036;-77
2022/07/01 15:19:49;;;;;;;6.07;3.97;;;;;;;;;;10431926;28;20016;-77
2022/07/01 15:24:49;;;;;;;5.22;3.83;;;;;;;;;;10427771;28;20029;-74
2022/07/01 15:29:49;;;;;;;6.93;3.97;;;;;;;;;;10432260;28;20020;-76
2022/07/01 15:34:49;;;;;;;7.13;4.15;;;;;;;;;;10433733;28;20072;-76
2022/07/01 15:39:50;;;;;;;8.32;5.28;;;;;;;;;;10455410;22;20827;-76
2022/07/01 15:44:50;;;;;;;6.60;3.67;;;;;;;;;;10433606;28;20025;-75
2022/07/01 15:49:51;;;;;;;6.70;4.05;;;;;;;;;;10434291;28;20287;-76
2022/07/01 15:54:51;;;;;;;5.43;4.07;;;;;;;;;;10433642;28;20060;-72
2022/07/01 15:59:52;;;;;;;4.70;4.30;;;;;;;;;;10431996;28;20749;-78
2022/07/01 16:04:55;;;;;;;12.38;4.10;;;;;;;;;;10437470;23;20148;-75
2022/07/01 16:10:02;;;;;;;4.90;3.80;;;;;;;;;;10431455;28;20025;-72
2022/07/01 16:15:04;;;;;;;7.68;4.97;;;;;;;;;;10434666;28;20032;-75
2022/07/01 16:20:04;;;;;;;13.55;4.32;;;;;;;;;;10434034;28;20067;-77
2022/07/01 16:25:05;;;;;;;6.65;4.18;;;;;;;;;;10437668;28;20509;-77
2022/07/01 16:30:06;;;;;;;7.47;3.70;;;;;;;;;;10433586;28;20031;-76
2022/07/01 16:35:06;;;;;;;9.95;4.50;;;;;;;;;;10429341;28;20060;-78
2022/07/01 16:40:10;;;;;;;7.03;3.67;;;;;;;;;;10423280;28;20052;-76
2022/07/01 16:45:11;;;;;;;7.95;4.63;;;;;;;;;;10420475;28;20454;-77
2022/07/01 16:50:12;;;;;;;8.40;4.25;;;;;;;;;;10418179;28;20086;-79
2022/07/01 16:55:16;;;;;;;5.43;3.78;;;;;;;;;;10422261;28;20590;-75
2022/07/01 17:00:20;;;;;;;7.88;3.97;;;;;;;;;;10432086;28;20029;-78
2022/07/01 17:05:21;;;;;;;6.72;3.88;;;;;;;;;;10372912;28;20389;-78
2022/07/01 17:10:21;;;;;;;5.63;4.32;;;;;;;;;;10378891;28;20422;-77
2022/07/01 17:15:22;;;;;;;8.50;4.97;;;;;;;;;;10372319;28;20038;-76
2022/07/01 17:20:22;;;;;;;5.90;4.40;;;;;;;;;;10380731;28;20061;-76
2022/07/01 17:25:41;;;;;;;8.38;4.90;;;;;;;;;;10378548;28;20060;-76
2022/07/01 17:30:43;;;;;;;8.88;4.25;;;;;;;;;;10391373;28;20025;-77
2022/07/01 17:35:49;;;;;;;10.73;4.25;;;;;;;;;;10374650;28;20524;-78
2022/07/01 17:40:50;;;;;;;6.53;4.35;;;;;;;;;;10388651;28;20033;-77
2022/07/01 17:45:50;;;;;;;10.95;5.00;;;;;;;;;;10394799;28;20060;-75
2022/07/01 17:50:52;;;;;;;8.73;5.05;;;;;;;;;;10372993;28;20524;-76
2022/07/01 17:55:54;;;;;;;9.15;4.55;;;;;;;;;;10395110;28;20487;-77
2022/07/01 18:00:54;;;;;;;5.10;4.45;;;;;;;;;;10395212;28;20025;-76
2022/07/01 18:05:55;;;;;;;8.30;5.25;;;;;;;;;;10379546;28;20634;-78
2022/07/01 18:11:01;;;;;;;5.30;4.45;;;;;;;;;;10384310;28;20087;-77
2022/07/01 18:16:05;;;;;;;6.85;5.22;;;;;;;;;;10373783;28;20022;-71
2022/07/01 18:21:10;;;;;;;7.30;5.13;;;;;;;;;;10354738;28;20037;-76
2022/07/01 18:26:13;;;;;;;7.32;5.57;;;;;;;;;;10376285;28;20021;-75
2022/07/01 18:31:14;;;;;;;6.85;4.80;;;;;;;;;;10380869;28;20017;-75
2022/07/01 18:36:15;;;;;;;16.35;5.95;;;;;;;;;;10384459;28;20551;-77
2022/07/01 18:41:16;;;;;;;12.80;5.25;;;;;;;;;;10373451;28;20017;-75
2022/07/01 18:46:16;;;;;;;8.95;6.15;;;;;;;;;;10374895;28;20518;-71
2022/07/01 18:51:17;;;;;;;9.55;5.38;;;;;;;;;;10433700;23;20057;-74
2022/07/01 18:56:17;;;;;;;8.57;5.97;;;;;;;;;;10396351;28;20040;-76
2022/07/01 19:01:17;;;;;;;6.78;5.53;;;;;;;;;;10403717;28;20110;-76
2022/07/01 19:06:18;;;;;;;17.48;6.03;;;;;;;;;;10415033;28;20029;-76
2022/07/01 19:11:18;;;;;;;10.98;6.60;;;;;;;;;;10409051;28;20067;-78
2022/07/01 19:16:18;;;;;;;10.38;6.30;;;;;;;;;;10407972;28;20025;-76
2022/07/01 19:21:21;;;;;;;8.60;6.90;;;;;;;;;;10411339;28;20556;-77
2022/07/01 19:26:21;;;;;;;12.77;7.32;;;;;;;;;;10420353;28;20021;-77
2022/07/01 19:31:22;;;;;;;8.93;5.83;;;;;;;;;;10422582;28;20410;-79
2022/07/01 19:36:22;;;;;;;7.90;6.13;;;;;;;;;;10419710;28;20056;-78
2022/07/01 19:41:22;;;;;;;8.35;6.53;;;;;;;;;;10421719;28;20020;-74
2022/07/01 19:46:22;;;;;;;13.37;6.83;;;;;;;;;;10421063;28;20403;-72
2022/07/01 19:51:23;;;;;;;9.63;6.68;;;;;;;;;;10418288;28;20041;-72
2022/07/01 19:56:23;;;;;;;8.40;6.15;;;;;;;;;;10455707;22;20065;-72
2022/07/01 20:01:23;;;;;;;9.10;6.37;;;;;;;;;;10438706;28;20028;-77
2022/07/01 20:06:24;;;;;;;10.17;6.30;;;;;;;;;;10436455;28;20032;-77
2022/07/01 20:11:24;;;;;;;14.00;6.57;;;;;;;;;;10438587;28;20124;-75
2022/07/01 20:16:24;;;;;;;14.27;7.22;;;;;;;;;;10436475;28;20048;-76
2022/07/01 20:21:24;;;;;;;12.40;5.78;;;;;;;;;;10437926;28;20097;-72
2022/07/01 20:26:25;;;;;;;12.60;6.78;;;;;;;;;;10435879;28;20577;-78
2022/07/01 20:31:25;;;;;;;9.60;6.78;;;;;;;;;;10437255;28;20540;-72
2022/07/01 20:36:25;;;;;;;11.40;6.20;;;;;;;;;;10437017;28;20029;-76
2022/07/01 20:41:26;;;;;;;9.00;6.13;;;;;;;;;;10437799;28;20039;-76
2022/07/01 20:46:26;;;;;;;9.27;6.30;;;;;;;;;;10439306;28;20021;-77
2022/07/01 20:51:26;;;;;;;10.80;6.68;;;;;;;;;;10437292;28;20025;-71
2022/07/01 20:56:26;;;;;;;7.80;5.70;;;;;;;;;;10462064;23;20719;-76
2022/07/01 21:01:27;;;;;;;9.07;6.30;;;;;;;;;;10439308;28;20035;-76
2022/07/01 21:06:27;;;;;;;12.13;6.88;;;;;;;;;;10433710;28;20434;-76
2022/07/01 21:11:27;;;;;;;11.63;6.13;;;;;;;;;;10436121;28;20610;-76
2022/07/01 21:16:27;;;;;;;8.30;6.20;;;;;;;;;;10436534;28;20439;-78
2022/07/01 21:21:29;;;;;;;6.25;5.60;;;;;;;;;;10439571;28;20028;-77
2022/07/01 21:26:29;;;;;;;8.52;6.05;;;;;;;;;;10436549;28;20032;-78
2022/07/01 21:31:30;;;;;;;15.98;9.38;;;;;;;;;;10435434;28;20031;-79
2022/07/01 21:36:30;;;;;;;8.70;6.22;;;;;;;;;;10435250;28;20454;-78
2022/07/01 21:41:35;;;;;;;9.00;7.40;;;;;;;;;;10434172;28;20020;-76
2022/07/01 21:46:36;;;;;;;9.82;6.40;;;;;;;;;;10435111;28;20017;-79
2022/07/01 21:51:37;;;;;;;16.17;6.70;;;;;;;;;;10436205;28;20025;-76
2022/07/01 21:56:39;;;;;;;10.85;6.75;;;;;;;;;;10434551;28;20071;-77
2022/07/01 22:01:41;;;;;;;7.68;6.05;;;;;;;;;;10434540;28;20021;-77
2022/07/01 22:06:59;;;;;;;11.50;7.25;;;;;;;;;;10436919;28;20025;-77
2022/07/01 22:11:59;;;;;;;20.38;7.10;;;;;;;;;;10435174;28;20017;-77
2022/07/01 22:17:00;;;;;;;8.93;7.32;;;;;;;;;;10433536;28;20017;-77
2022/07/01 22:22:02;;;;;;;8.93;7.25;;;;;;;;;;10433510;28;20031;-78
2022/07/01 22:27:03;;;;;;;10.85;6.78;;;;;;;;;;10433673;28;20117;-77
2022/07/01 22:32:05;;;;;;;12.90;8.35;;;;;;;;;;10433553;28;20463;-76
2022/07/01 22:37:05;;;;;;;11.45;7.47;;;;;;;;;;10433235;28;20151;-77
2022/07/01 22:42:06;;;;;;;12.27;8.02;;;;;;;;;;10433255;28;20418;-73
2022/07/01 22:47:07;;;;;;;7.70;6.47;;;;;;;;;;10434430;28;20487;-77
2022/07/01 22:52:07;;;;;;;27.20;9.32;;;;;;;;;;10454616;23;20053;-78
2022/07/01 22:57:12;;;;;;;15.40;7.22;;;;;;;;;;10436844;28;20487;-77
2022/07/01 23:02:17;;;;;;;8.75;7.13;;;;;;;;;;10441214;28;20721;-72
2022/07/01 23:07:23;;;;;;;11.77;6.95;;;;;;;;;;10433572;28;20033;-78
2022/07/01 23:12:39;;;;;;;9.95;7.30;;;;;;;;;;10441834;28;20151;-77
2022/07/01 23:17:40;;;;;;;12.48;8.10;;;;;;;;;;10455036;28;20067;-78
2022/07/01 23:22:42;;;;;;;9.77;7.25;;;;;;;;;;10441499;28;20039;-73
2022/07/01 23:27:43;;;;;;;13.93;8.40;;;;;;;;;;10439934;28;20063;-77
2022/07/01 23:32:47;;;;;;;9.77;7.85;;;;;;;;;;10439415;28;20025;-73
2022/07/01 23:37:48;;;;;;;8.60;7.57;;;;;;;;;;10433538;28;20045;-73
2022/07/01 23:42:48;;;;;;;16.58;8.73;;;;;;;;;;10458594;23;20066;-73
2022/07/01 23:47:48;;;;;;;11.02;7.43;;;;;;;;;;10434893;28;20025;-73
2022/07/01 23:52:49;;;;;;;8.83;6.97;;;;;;;;;;10434082;28;20509;-76
2022/07/01 23:57:49;;;;;;;14.23;8.05;;;;;;;;;;10437041;28;20043;-76
